createdAt,value
2023-05-23T00:01:55.114Z,14.56
2023-05-23T00:06:59.398Z,14.62
2023-05-23T00:12:02.228Z,14.68
2023-05-23T00:17:06.044Z,14.73
2023-05-23T00:22:10.780Z,14.72
2023-05-23T00:27:13.548Z,14.77
2023-05-23T00:32:16.331Z,14.61
2023-05-23T00:37:20.455Z,14.64
2023-05-23T00:42:23.312Z,14.55
2023-05-23T00:47:26.183Z,14.48
2023-05-23T00:52:30.595Z,14.61
2023-05-23T00:57:34.393Z,14.40
2023-05-23T01:02:41.616Z,14.43
2023-05-23T01:07:46.765Z,14.56
2023-05-23T01:12:59.709Z,14.60
2023-05-23T01:18:09.230Z,14.63
2023-05-23T01:23:29.348Z,14.46
2023-05-23T01:28:42.541Z,14.60
2023-05-23T01:33:45.358Z,14.21
2023-05-23T01:38:48.284Z,13.89
2023-05-23T01:43:53.008Z,13.85
2023-05-23T01:48:56.859Z,13.71
2023-05-23T01:53:59.692Z,13.61
2023-05-23T01:59:04.309Z,13.68
2023-05-23T02:04:07.190Z,13.70
2023-05-23T02:09:10.135Z,13.66
2023-05-23T02:14:14.285Z,13.67
2023-05-23T02:19:18.122Z,13.75
2023-05-23T02:24:22.628Z,13.75
2023-05-23T02:29:26.771Z,13.61
2023-05-23T02:34:29.647Z,13.57
2023-05-23T02:39:32.555Z,13.61
2023-05-23T02:44:36.757Z,13.59
2023-05-23T02:49:39.642Z,13.48
2023-05-23T02:54:42.913Z,13.41
2023-05-23T02:59:47.150Z,13.34
2023-05-23T03:04:51.047Z,13.46
2023-05-23T03:09:54.019Z,13.50
2023-05-23T03:14:58.367Z,13.58
2023-05-23T03:20:01.360Z,13.69
2023-05-23T03:25:04.725Z,13.72
2023-05-23T03:30:11.970Z,13.81
2023-05-23T03:35:14.984Z,13.93
2023-05-23T03:40:17.918Z,13.88
2023-05-23T03:45:23.259Z,13.92
2023-05-23T03:50:26.611Z,13.91
2023-05-23T03:55:32.634Z,13.97
2023-05-23T04:00:37.199Z,13.90
2023-05-23T04:05:43.219Z,13.74
2023-05-23T04:10:46.523Z,13.92
2023-05-23T04:15:52.293Z,13.73
2023-05-23T04:20:56.502Z,13.78
2023-05-23T04:25:59.686Z,13.72
2023-05-23T04:31:10.193Z,13.61
2023-05-23T04:36:14.068Z,13.52
2023-05-23T04:41:23.428Z,13.53
2023-05-23T04:47:09.156Z,13.60
2023-05-23T04:52:35.299Z,13.44
2023-05-23T04:57:38.414Z,13.53
2023-05-23T05:02:44.367Z,13.52
2023-05-23T05:07:47.354Z,13.45
2023-05-23T05:12:50.480Z,13.62
2023-05-23T05:17:56.384Z,13.55
2023-05-23T05:22:59.661Z,13.57
2023-05-23T05:28:05.982Z,13.67
2023-05-23T05:33:13.768Z,13.64
2023-05-23T05:38:17.327Z,13.52
2023-05-23T05:43:20.351Z,13.55
2023-05-23T05:48:24.769Z,13.52
2023-05-23T05:53:29.904Z,13.44
2023-05-23T05:58:32.861Z,13.42
2023-05-23T06:03:39.956Z,13.40
2023-05-23T06:08:43.300Z,13.30
2023-05-23T06:13:50.600Z,13.28
2023-05-23T06:18:54.859Z,13.33
2023-05-23T06:23:59.465Z,13.17
2023-05-23T06:29:17.532Z,13.08
2023-05-23T06:34:20.870Z,13.13
2023-05-23T06:39:23.659Z,13.09
2023-05-23T06:44:27.807Z,13.09
2023-05-23T06:49:30.663Z,13.10
2023-05-23T06:54:33.554Z,12.92
2023-05-23T06:59:38.239Z,12.87
2023-05-23T07:04:41.330Z,12.65
2023-05-23T07:09:51.278Z,12.50
2023-05-23T07:14:57.103Z,12.49
2023-05-23T07:20:02.883Z,12.64
2023-05-23T07:25:08.515Z,12.53
2023-05-23T07:30:14.324Z,12.42
2023-05-23T07:35:17.772Z,12.45
2023-05-23T07:40:21.904Z,12.53
2023-05-23T07:45:26.247Z,12.51
2023-05-23T07:50:29.579Z,12.64
2023-05-23T07:55:32.817Z,12.62
2023-05-23T08:00:37.162Z,12.51
2023-05-23T08:05:48.450Z,12.70
2023-05-23T08:10:51.398Z,12.73
2023-05-23T08:16:01.907Z,12.57
2023-05-23T08:21:06.860Z,12.34
2023-05-23T08:26:10.584Z,12.46
2023-05-23T08:31:16.099Z,12.42
2023-05-23T08:36:19.507Z,12.34
2023-05-23T08:41:25.937Z,12.30
2023-05-23T08:46:41.635Z,12.48
2023-05-23T08:51:44.869Z,12.22
2023-05-23T08:56:54.066Z,12.28
2023-05-23T09:01:58.514Z,12.28
2023-05-23T09:07:02.436Z,12.19
2023-05-23T09:12:06.820Z,12.11
2023-05-23T09:17:12.255Z,12.05
2023-05-23T09:22:15.073Z,11.89
2023-05-23T09:27:32.479Z,11.94
2023-05-23T09:32:37.177Z,11.94
2023-05-23T09:37:45.844Z,11.84
2023-05-23T09:42:52.303Z,11.99
2023-05-23T09:47:56.531Z,11.89
2023-05-23T09:52:59.389Z,11.93
2023-05-23T09:58:02.548Z,11.84
2023-05-23T10:03:13.737Z,11.82
2023-05-23T10:08:19.972Z,11.81
2023-05-23T10:13:23.963Z,11.75
2023-05-23T10:18:30.455Z,11.75
2023-05-23T10:23:33.053Z,11.67
2023-05-23T10:28:36.189Z,11.67
2023-05-23T10:33:44.451Z,11.59
2023-05-23T10:38:52.652Z,11.54
2023-05-23T10:43:58.422Z,11.47
2023-05-23T10:49:03.666Z,11.65
2023-05-23T10:54:12.042Z,11.88
2023-05-23T10:59:21.821Z,12.07
2023-05-23T11:04:29.929Z,11.89
2023-05-23T11:09:32.770Z,12.03
2023-05-23T11:14:55.114Z,12.55
2023-05-23T11:20:05.749Z,13.81
2023-05-23T11:25:10.099Z,13.30
2023-05-23T11:30:14.665Z,12.71
2023-05-23T11:35:19.069Z,13.18
2023-05-23T11:40:29.649Z,13.57
2023-05-23T11:45:33.728Z,13.59
2023-05-23T11:50:45.588Z,13.67
2023-05-23T11:55:53.231Z,13.28
2023-05-23T12:01:00.171Z,13.23
2023-05-23T12:06:04.581Z,13.09
2023-05-23T12:11:07.466Z,13.15
2023-05-23T12:16:11.907Z,12.91
2023-05-23T12:21:16.185Z,13.18
2023-05-23T12:26:19.297Z,13.63
2023-05-23T12:31:22.943Z,13.73
2023-05-23T12:36:32.264Z,13.47
2023-05-23T12:41:35.144Z,14.00
2023-05-23T12:46:38.298Z,13.83
2023-05-23T12:51:42.642Z,13.73
2023-05-23T12:56:45.485Z,14.45
2023-05-23T13:01:48.428Z,14.86
2023-05-23T13:06:52.874Z,14.72
2023-05-23T13:11:55.891Z,14.85
2023-05-23T13:16:58.816Z,14.24
2023-05-23T13:22:04.500Z,14.77
2023-05-23T13:27:07.967Z,14.88
2023-05-23T13:32:10.765Z,14.99
2023-05-23T13:37:14.913Z,14.57
2023-05-23T13:42:17.709Z,14.29
2023-05-23T13:47:20.505Z,14.58
2023-05-23T13:52:24.651Z,14.45
2023-05-23T13:57:27.400Z,15.16
2023-05-23T14:02:31.988Z,15.24
2023-05-23T14:07:36.460Z,14.80
2023-05-23T14:12:39.273Z,14.84
2023-05-23T14:17:42.065Z,14.98
2023-05-23T14:22:46.189Z,14.48
2023-05-23T14:27:49.021Z,14.34
2023-05-23T14:32:51.822Z,15.11
2023-05-23T14:37:56.081Z,15.03
2023-05-23T14:42:58.855Z,14.86
2023-05-23T14:48:01.698Z,14.55
2023-05-23T14:53:05.916Z,14.57
2023-05-23T14:58:08.714Z,15.07
2023-05-23T15:03:12.014Z,14.80
2023-05-23T15:08:16.999Z,14.72
2023-05-23T15:13:19.845Z,14.83
2023-05-23T15:18:38.839Z,14.79
2023-05-23T15:23:44.392Z,14.58
2023-05-23T15:28:47.377Z,14.82
2023-05-23T15:33:50.240Z,14.30
2023-05-23T15:38:54.386Z,13.88
2023-05-23T15:43:57.258Z,14.14
2023-05-23T15:49:07.510Z,13.88
2023-05-23T15:54:21.579Z,14.27
2023-05-23T15:59:24.450Z,14.38
2023-05-23T16:04:27.208Z,14.61
2023-05-23T16:09:31.356Z,14.52
2023-05-23T16:14:34.187Z,13.58
2023-05-23T16:19:37.003Z,14.05
2023-05-23T16:24:41.170Z,14.22
2023-05-23T16:29:44.030Z,13.93
2023-05-23T16:34:52.679Z,13.84
2023-05-23T16:39:58.248Z,13.48
2023-05-23T16:45:01.260Z,13.84
2023-05-23T16:50:04.950Z,13.71
2023-05-23T16:55:09.363Z,13.18
2023-05-23T17:00:13.378Z,13.11
2023-05-23T17:05:16.166Z,13.12
2023-05-23T17:10:20.520Z,13.12
2023-05-23T17:15:23.417Z,13.23
2023-05-23T17:20:26.955Z,13.35
2023-05-23T17:25:31.283Z,13.43
2023-05-23T17:30:34.086Z,13.41
2023-05-23T17:35:36.846Z,13.41
2023-05-23T17:40:42.038Z,12.94
2023-05-23T17:45:45.100Z,13.11
2023-05-23T17:50:47.871Z,12.85
2023-05-23T17:55:51.991Z,13.15
2023-05-23T18:00:54.834Z,12.89
2023-05-23T18:05:57.778Z,12.72
2023-05-23T18:11:02.545Z,12.85
2023-05-23T18:16:05.459Z,12.74
2023-05-23T18:21:09.420Z,12.61
2023-05-23T18:26:13.589Z,12.70
2023-05-23T18:31:16.669Z,12.45
2023-05-23T18:36:19.629Z,12.35
2023-05-23T18:41:24.048Z,12.18
2023-05-23T18:46:27.239Z,12.12
2023-05-23T18:51:30.076Z,12.05
2023-05-23T18:56:34.232Z,12.02
2023-05-23T19:01:37.091Z,11.99
2023-05-23T19:06:39.977Z,11.89
2023-05-23T19:11:44.111Z,11.58
2023-05-23T19:16:47.028Z,11.55
2023-05-23T19:21:49.988Z,11.47
2023-05-23T19:26:54.235Z,11.33
2023-05-23T19:31:57.175Z,11.24
2023-05-23T19:37:00.560Z,10.97
2023-05-23T19:42:05.062Z,10.94
2023-05-23T19:47:07.991Z,10.76
2023-05-23T19:52:10.771Z,10.79
2023-05-23T19:57:14.886Z,10.68
2023-05-23T20:02:17.962Z,10.45
2023-05-23T20:07:20.771Z,10.47
2023-05-23T20:12:24.996Z,10.47
2023-05-23T20:17:29.242Z,10.39
2023-05-23T20:22:32.055Z,10.21
2023-05-23T20:27:36.215Z,10.03
2023-05-23T20:32:38.998Z,9.93
2023-05-23T20:37:43.947Z,9.92
2023-05-23T20:42:49.696Z,9.79
2023-05-23T20:47:53.696Z,9.86
2023-05-23T20:52:56.564Z,9.77
2023-05-23T20:58:00.748Z,9.55
2023-05-23T21:03:03.708Z,9.63
2023-05-23T21:08:06.727Z,9.31
2023-05-23T21:13:10.871Z,9.31
2023-05-23T21:18:13.651Z,9.34
2023-05-23T21:23:16.615Z,9.14
2023-05-23T21:28:21.096Z,8.91
2023-05-23T21:33:24.185Z,9.05
2023-05-23T21:38:27.608Z,9.00
2023-05-23T21:43:31.728Z,8.99
2023-05-23T21:48:34.490Z,9.01
2023-05-23T21:53:37.247Z,8.99
2023-05-23T21:58:41.472Z,8.98
2023-05-23T22:03:44.783Z,9.06
2023-05-23T22:08:47.630Z,8.95
2023-05-23T22:13:51.743Z,8.90
2023-05-23T22:18:58.034Z,8.78
2023-05-23T22:24:00.673Z,8.83
2023-05-23T22:29:04.847Z,8.92
2023-05-23T22:34:07.632Z,8.71
2023-05-23T22:39:10.693Z,8.64
2023-05-23T22:44:14.802Z,8.69
2023-05-23T22:49:17.573Z,8.84
2023-05-23T22:54:20.315Z,8.78
2023-05-23T22:59:24.510Z,8.63
2023-05-23T23:04:30.942Z,8.50
2023-05-23T23:09:33.784Z,8.64
2023-05-23T23:14:37.903Z,8.53
2023-05-23T23:19:41.234Z,8.12
2023-05-23T23:24:44.005Z,8.10
2023-05-23T23:29:48.116Z,7.96
2023-05-23T23:34:50.949Z,7.94
2023-05-23T23:39:53.753Z,8.02
2023-05-23T23:44:57.883Z,8.09
2023-05-23T23:50:00.713Z,8.16
2023-05-23T23:55:03.571Z,8.13
